Walkerton, Virginia
Current Conditions -  °F | °C
As of 11:35 AM on Saturday 22 Nov 2014 (Local Time) from KXSA Reporting Station
Clear Clear  
Wind Chill: 38°   Ceiling: Unl
Heat Index: 45°   Visibility: 10mi
Dew Point:   Wind: 13mph
Humidity: 23%   Direction: 180°S
Pressure: 30.49"   Gusts: 18mph
Location:  37.73°N, 77.02°W
Report Text: KXSA 221635Z AUTO 18011G16KT 10SM CLR 07/M13 A3049 RMK AO2 T00701132
Loading
Personal Weather Stations






























Interactive Weather Map New forecast layout! Learn more

10-Day Weather Forecast

Advertisements
Track Severe Weather on mobile